N189RS KMAN-KU76
Flight info
| Callsign | N189RS |
|---|---|
| Flight time | N/A |
| Altitude | 6000 |
| Route | |
| Aircraft | DA62/L-VGD/C |
Departure
| Time | N/A |
|---|---|
| Airport | Nampa Municipal Airport (KMAN) |
Arrival
| Time | 2026-04-18 18:39 |
|---|---|
| Airport | Mountain Home Municipal Airport (KU76) |
| Time | Latitude | Longitude | Altitude | Speed | Heading |
|---|---|---|---|---|---|
| 2026-04-18 18:28 | 43.33811 | -116.14549 | 5990 ft | 172 kts | 113° |
| 2026-04-18 18:28 | 43.33399 | -116.12995 | 5991 ft | 174 kts | 112° |
| 2026-04-18 18:28 | 43.32987 | -116.11433 | 5990 ft | 174 kts | 112° |
| 2026-04-18 18:28 | 43.32552 | -116.09866 | 5982 ft | 177 kts | 112° |
| 2026-04-18 18:29 | 43.32094 | -116.08307 | 5987 ft | 179 kts | 113° |
| 2026-04-18 18:29 | 43.31626 | -116.06719 | 5987 ft | 180 kts | 113° |
| 2026-04-18 18:29 | 43.31158 | -116.05122 | 5984 ft | 181 kts | 112° |
| 2026-04-18 18:29 | 43.30692 | -116.03522 | 5989 ft | 181 kts | 113° |
| 2026-04-18 18:30 | 43.30224 | -116.01928 | 5983 ft | 178 kts | 112° |
| 2026-04-18 18:30 | 43.29756 | -116.00364 | 5991 ft | 176 kts | 112° |
| 2026-04-18 18:30 | 43.29288 | -115.98809 | 5997 ft | 176 kts | 112° |
| 2026-04-18 18:30 | 43.28771 | -115.97305 | 5988 ft | 178 kts | 126° |
| 2026-04-18 18:31 | 43.27753 | -115.96302 | 5998 ft | 181 kts | 150° |
| 2026-04-18 18:31 | 43.26644 | -115.95550 | 6000 ft | 179 kts | 150° |
| 2026-04-18 18:31 | 43.25546 | -115.94740 | 5998 ft | 179 kts | 147° |
| 2026-04-18 18:31 | 43.24487 | -115.93860 | 5995 ft | 176 kts | 146° |
| 2026-04-18 18:32 | 43.23440 | -115.92964 | 6015 ft | 179 kts | 146° |
| 2026-04-18 18:32 | 43.22372 | -115.92057 | 6008 ft | 182 kts | 146° |
| 2026-04-18 18:32 | 43.21174 | -115.91471 | 5978 ft | 189 kts | 174° |
| 2026-04-18 18:32 | 43.19897 | -115.91926 | 5995 ft | 198 kts | 206° |
| 2026-04-18 18:33 | 43.18992 | -115.93354 | 5993 ft | 206 kts | 242° |
| 2026-04-18 18:33 | 43.18860 | -115.95313 | 5988 ft | 211 kts | 281° |
| 2026-04-18 18:33 | 43.19566 | -115.97014 | 5990 ft | 210 kts | 317° |
| 2026-04-18 18:33 | 43.20847 | -115.97850 | 5988 ft | 204 kts | 357° |
| 2026-04-18 18:34 | 43.22184 | -115.97486 | 5991 ft | 195 kts | 33° |
| 2026-04-18 18:34 | 43.23130 | -115.96242 | 5994 ft | 186 kts | 62° |
| 2026-04-18 18:34 | 43.23464 | -115.94578 | 5992 ft | 181 kts | 91° |
| 2026-04-18 18:34 | 43.23150 | -115.92935 | 5989 ft | 181 kts | 119° |
| 2026-04-18 18:35 | 43.22334 | -115.91612 | 5999 ft | 184 kts | 132° |
| 2026-04-18 18:35 | 43.21457 | -115.90336 | 5926 ft | 185 kts | 131° |
| 2026-04-18 18:35 | 43.20563 | -115.89036 | 5733 ft | 188 kts | 132° |
| 2026-04-18 18:35 | 43.19655 | -115.87742 | 5471 ft | 189 kts | 133° |
| 2026-04-18 18:36 | 43.18797 | -115.86481 | 5222 ft | 174 kts | 130° |
| 2026-04-18 18:36 | 43.18008 | -115.85313 | 4998 ft | 162 kts | 129° |
| 2026-04-18 18:36 | 43.17282 | -115.84221 | 4853 ft | 150 kts | 125° |
| 2026-04-18 18:36 | 43.16777 | -115.82995 | 4638 ft | 147 kts | 114° |
| 2026-04-18 18:37 | 43.16323 | -115.81740 | 4428 ft | 147 kts | 114° |
| 2026-04-18 18:37 | 43.15869 | -115.80493 | 4252 ft | 147 kts | 114° |
| 2026-04-18 18:37 | 43.15415 | -115.79248 | 4037 ft | 144 kts | 114° |
| 2026-04-18 18:37 | 43.14982 | -115.78058 | 3844 ft | 139 kts | 114° |
| 2026-04-18 18:38 | 43.14559 | -115.76897 | 3669 ft | 135 kts | 113° |
| 2026-04-18 18:38 | 43.14147 | -115.75762 | 3510 ft | 133 kts | 112° |
| 2026-04-18 18:38 | 43.13798 | -115.74845 | 3379 ft | 85 kts | 112° |
| 2026-04-18 18:38 | 43.13566 | -115.74190 | 3263 ft | 73 kts | 109° |
| 2026-04-18 18:39 | 43.13362 | -115.73618 | 3178 ft | 56 kts | 106° |
| 2026-04-18 18:39 | 43.13251 | -115.73263 | 3177 ft | 31 kts | 122° |
| 2026-04-18 18:39 | 43.13167 | -115.73062 | 3175 ft | 20 kts | 118° |
| 2026-04-18 18:39 | 43.13097 | -115.73042 | 3173 ft | 11 kts | 233° |
| 2026-04-18 18:40 | 43.13096 | -115.73071 | 3173 ft | 0 kts | 296° |
| 2026-04-18 18:42 | 43.13149 | -115.73217 | 3176 ft | 28 kts | 296° |
| 2026-04-18 18:42 | 43.13257 | -115.73514 | 3179 ft | 38 kts | 295° |
| 2026-04-18 18:42 | 43.13336 | -115.73730 | 3178 ft | 17 kts | 296° |
| 2026-04-18 18:43 | 43.13412 | -115.73923 | 3178 ft | 0 kts | 344° |
| 2026-04-18 18:44 | 43.13414 | -115.73924 | 3177 ft | 3 kts | 353° |
| 2026-04-18 18:44 | 43.13463 | -115.73883 | 3179 ft | 11 kts | 69° |
| 2026-04-18 18:44 | 43.13444 | -115.73814 | 3179 ft | 12 kts | 118° |
| 2026-04-18 18:44 | 43.13314 | -115.73460 | 3181 ft | 67 kts | 110° |
| 2026-04-18 18:45 | 43.13048 | -115.72757 | 3263 ft | 96 kts | 116° |
| 2026-04-18 18:45 | 43.12707 | -115.71885 | 3405 ft | 110 kts | 111° |
| 2026-04-18 18:45 | 43.12360 | -115.70885 | 3580 ft | 120 kts | 112° |
| 2026-04-18 18:45 | 43.12058 | -115.69858 | 3803 ft | 113 kts | 100° |
| 2026-04-18 18:46 | 43.12373 | -115.68938 | 4043 ft | 119 kts | 37° |